<?xml version="1.0" encoding="UTF-8" standalone="no" ?>
<gpx xmlns="http://www.topografix.com/GPX/1/1" xmlns:xsi="http://www.w3.org/2001/XMLSchema-instance" xsi:schemaLocation="http://www.topografix.com/GPX/1/1 http://www.topografix.com/GPX/1/1/gpx.xsd" version="1.1" creator="VisuGPX - https://www.visugpx.com">
  <metadata>
    <name>les cloches de Barles 9 juin 2012</name>
  </metadata>
  <trk>
    <name><![CDATA[les cloches de Barles 9 juin 2012]]></name>
    <trkseg>
      <trkpt lat="44.25776" lon="6.25196">
        <ele>1214.28</ele>
        <time>2012-06-09T07:53:59Z</time>
      </trkpt>
      <trkpt lat="44.25774" lon="6.25198">
        <ele>1216.21</ele>
        <time>2012-06-09T07:54:26Z</time>
      </trkpt>
      <trkpt lat="44.25774" lon="6.25197">
        <ele>1216.69</ele>
        <time>2012-06-09T07:54:29Z</time>
      </trkpt>
      <trkpt lat="44.25774" lon="6.25197">
        <ele>1216.69</ele>
        <time>2012-06-09T07:54:41Z</time>
      </trkpt>
      <trkpt lat="44.25774" lon="6.25197">
        <ele>1216.69</ele>
        <time>2012-06-09T07:54:49Z</time>
      </trkpt>
      <trkpt lat="44.2574" lon="6.2506">
        <ele>1235.43</ele>
        <time>2012-06-09T07:58:00Z</time>
      </trkpt>
      <trkpt lat="44.25631" lon="6.25009">
        <ele>1256.1</ele>
        <time>2012-06-09T08:00:36Z</time>
      </trkpt>
      <trkpt lat="44.25568" lon="6.24919">
        <ele>1271.48</ele>
        <time>2012-06-09T08:02:39Z</time>
      </trkpt>
      <trkpt lat="44.25521" lon="6.24799">
        <ele>1278.21</ele>
        <time>2012-06-09T08:04:27Z</time>
      </trkpt>
      <trkpt lat="44.25492" lon="6.24677">
        <ele>1284.94</ele>
        <time>2012-06-09T08:06:30Z</time>
      </trkpt>
      <trkpt lat="44.25484" lon="6.24533">
        <ele>1296.96</ele>
        <time>2012-06-09T08:08:37Z</time>
      </trkpt>
      <trkpt lat="44.25469" lon="6.24375">
        <ele>1300.8</ele>
        <time>2012-06-09T08:10:56Z</time>
      </trkpt>
      <trkpt lat="44.25415" lon="6.24326">
        <ele>1304.17</ele>
        <time>2012-06-09T08:14:19Z</time>
      </trkpt>
      <trkpt lat="44.25331" lon="6.24267">
        <ele>1320.99</ele>
        <time>2012-06-09T08:16:38Z</time>
      </trkpt>
      <trkpt lat="44.2525" lon="6.24221">
        <ele>1338.77</ele>
        <time>2012-06-09T08:18:37Z</time>
      </trkpt>
      <trkpt lat="44.25229" lon="6.24139">
        <ele>1355.6</ele>
        <time>2012-06-09T08:21:19Z</time>
      </trkpt>
      <trkpt lat="44.25222" lon="6.24022">
        <ele>1369.54</ele>
        <time>2012-06-09T08:23:28Z</time>
      </trkpt>
      <trkpt lat="44.2523" lon="6.23908">
        <ele>1388.76</ele>
        <time>2012-06-09T08:28:54Z</time>
      </trkpt>
      <trkpt lat="44.25273" lon="6.23788">
        <ele>1404.62</ele>
        <time>2012-06-09T08:31:08Z</time>
      </trkpt>
      <trkpt lat="44.25286" lon="6.23662">
        <ele>1418.56</ele>
        <time>2012-06-09T08:33:10Z</time>
      </trkpt>
      <trkpt lat="44.25232" lon="6.23558">
        <ele>1437.79</ele>
        <time>2012-06-09T08:35:26Z</time>
      </trkpt>
      <trkpt lat="44.25189" lon="6.23451">
        <ele>1459.9</ele>
        <time>2012-06-09T08:37:54Z</time>
      </trkpt>
      <trkpt lat="44.25183" lon="6.23327">
        <ele>1470.95</ele>
        <time>2012-06-09T08:39:44Z</time>
      </trkpt>
      <trkpt lat="44.25122" lon="6.23236">
        <ele>1478.65</ele>
        <time>2012-06-09T08:41:39Z</time>
      </trkpt>
      <trkpt lat="44.25053" lon="6.23156">
        <ele>1503.16</ele>
        <time>2012-06-09T08:44:57Z</time>
      </trkpt>
      <trkpt lat="44.25014" lon="6.23073">
        <ele>1522.39</ele>
        <time>2012-06-09T08:54:45Z</time>
      </trkpt>
      <trkpt lat="44.24963" lon="6.23">
        <ele>1544.98</ele>
        <time>2012-06-09T08:57:16Z</time>
      </trkpt>
      <trkpt lat="44.24927" lon="6.22893">
        <ele>1567.57</ele>
        <time>2012-06-09T09:02:26Z</time>
      </trkpt>
      <trkpt lat="44.24867" lon="6.22815">
        <ele>1585.83</ele>
        <time>2012-06-09T09:04:22Z</time>
      </trkpt>
      <trkpt lat="44.24839" lon="6.22724">
        <ele>1596.89</ele>
        <time>2012-06-09T09:09:25Z</time>
      </trkpt>
      <trkpt lat="44.24785" lon="6.22627">
        <ele>1599.77</ele>
        <time>2012-06-09T09:11:09Z</time>
      </trkpt>
      <trkpt lat="44.24709" lon="6.22548">
        <ele>1607.94</ele>
        <time>2012-06-09T09:12:56Z</time>
      </trkpt>
      <trkpt lat="44.24652" lon="6.22471">
        <ele>1621.4</ele>
        <time>2012-06-09T09:15:00Z</time>
      </trkpt>
      <trkpt lat="44.24641" lon="6.22342">
        <ele>1620.44</ele>
        <time>2012-06-09T09:16:44Z</time>
      </trkpt>
      <trkpt lat="44.24614" lon="6.22206">
        <ele>1626.69</ele>
        <time>2012-06-09T09:18:37Z</time>
      </trkpt>
      <trkpt lat="44.2457" lon="6.22149">
        <ele>1625.73</ele>
        <time>2012-06-09T09:21:12Z</time>
      </trkpt>
      <trkpt lat="44.24544" lon="6.22223">
        <ele>1641.11</ele>
        <time>2012-06-09T09:26:01Z</time>
      </trkpt>
      <trkpt lat="44.24478" lon="6.22175">
        <ele>1660.81</ele>
        <time>2012-06-09T09:28:12Z</time>
      </trkpt>
      <trkpt lat="44.24423" lon="6.22169">
        <ele>1672.35</ele>
        <time>2012-06-09T09:31:27Z</time>
      </trkpt>
      <trkpt lat="44.24346" lon="6.22182">
        <ele>1688.21</ele>
        <time>2012-06-09T09:33:16Z</time>
      </trkpt>
      <trkpt lat="44.2427" lon="6.22222">
        <ele>1692.06</ele>
        <time>2012-06-09T09:38:16Z</time>
      </trkpt>
      <trkpt lat="44.24202" lon="6.22244">
        <ele>1693.5</ele>
        <time>2012-06-09T09:41:02Z</time>
      </trkpt>
      <trkpt lat="44.24123" lon="6.22273">
        <ele>1705.52</ele>
        <time>2012-06-09T09:43:18Z</time>
      </trkpt>
      <trkpt lat="44.24036" lon="6.22286">
        <ele>1708.4</ele>
        <time>2012-06-09T09:44:46Z</time>
      </trkpt>
      <trkpt lat="44.23959" lon="6.22344">
        <ele>1710.32</ele>
        <time>2012-06-09T09:46:09Z</time>
      </trkpt>
      <trkpt lat="44.23891" lon="6.22426">
        <ele>1721.38</ele>
        <time>2012-06-09T09:47:37Z</time>
      </trkpt>
      <trkpt lat="44.23835" lon="6.22487">
        <ele>1731.95</ele>
        <time>2012-06-09T09:49:23Z</time>
      </trkpt>
      <trkpt lat="44.23804" lon="6.22576">
        <ele>1735.32</ele>
        <time>2012-06-09T09:54:26Z</time>
      </trkpt>
      <trkpt lat="44.2378" lon="6.22681">
        <ele>1731.95</ele>
        <time>2012-06-09T09:55:59Z</time>
      </trkpt>
      <trkpt lat="44.23751" lon="6.22779">
        <ele>1739.16</ele>
        <time>2012-06-09T09:57:23Z</time>
      </trkpt>
      <trkpt lat="44.23757" lon="6.22891">
        <ele>1772.33</ele>
        <time>2012-06-09T10:00:55Z</time>
      </trkpt>
      <trkpt lat="44.23784" lon="6.22997">
        <ele>1799.73</ele>
        <time>2012-06-09T10:03:43Z</time>
      </trkpt>
      <trkpt lat="44.23778" lon="6.23073">
        <ele>1826.64</ele>
        <time>2012-06-09T10:09:34Z</time>
      </trkpt>
      <trkpt lat="44.23696" lon="6.23044">
        <ele>1854.04</ele>
        <time>2012-06-09T10:11:57Z</time>
      </trkpt>
      <trkpt lat="44.23613" lon="6.23026">
        <ele>1870.38</ele>
        <time>2012-06-09T10:13:45Z</time>
      </trkpt>
      <trkpt lat="44.23543" lon="6.23037">
        <ele>1878.55</ele>
        <time>2012-06-09T10:20:33Z</time>
      </trkpt>
      <trkpt lat="44.23509" lon="6.23043">
        <ele>1883.84</ele>
        <time>2012-06-09T11:22:01Z</time>
      </trkpt>
      <trkpt lat="44.23593" lon="6.23034">
        <ele>1884.32</ele>
        <time>2012-06-09T11:24:50Z</time>
      </trkpt>
      <trkpt lat="44.23677" lon="6.23031">
        <ele>1859.81</ele>
        <time>2012-06-09T11:26:47Z</time>
      </trkpt>
      <trkpt lat="44.23757" lon="6.23061">
        <ele>1834.81</ele>
        <time>2012-06-09T11:28:58Z</time>
      </trkpt>
      <trkpt lat="44.2378" lon="6.23001">
        <ele>1804.05</ele>
        <time>2012-06-09T11:31:28Z</time>
      </trkpt>
      <trkpt lat="44.23747" lon="6.22882">
        <ele>1774.25</ele>
        <time>2012-06-09T11:33:47Z</time>
      </trkpt>
      <trkpt lat="44.23756" lon="6.22759">
        <ele>1743.97</ele>
        <time>2012-06-09T11:35:46Z</time>
      </trkpt>
      <trkpt lat="44.23784" lon="6.22644">
        <ele>1741.08</ele>
        <time>2012-06-09T11:38:54Z</time>
      </trkpt>
      <trkpt lat="44.23815" lon="6.22525">
        <ele>1742.53</ele>
        <time>2012-06-09T11:40:25Z</time>
      </trkpt>
      <trkpt lat="44.23827" lon="6.224">
        <ele>1750.22</ele>
        <time>2012-06-09T11:42:25Z</time>
      </trkpt>
      <trkpt lat="44.23839" lon="6.22276">
        <ele>1767.04</ele>
        <time>2012-06-09T11:44:19Z</time>
      </trkpt>
      <trkpt lat="44.23848" lon="6.22174">
        <ele>1794.92</ele>
        <time>2012-06-09T11:46:54Z</time>
      </trkpt>
      <trkpt lat="44.23852" lon="6.22056">
        <ele>1807.42</ele>
        <time>2012-06-09T11:53:25Z</time>
      </trkpt>
      <trkpt lat="44.23903" lon="6.21984">
        <ele>1823.28</ele>
        <time>2012-06-09T11:55:50Z</time>
      </trkpt>
      <trkpt lat="44.23951" lon="6.21946">
        <ele>1857.4</ele>
        <time>2012-06-09T12:02:02Z</time>
      </trkpt>
      <trkpt lat="44.23993" lon="6.21952">
        <ele>1891.05</ele>
        <time>2012-06-09T12:08:49Z</time>
      </trkpt>
      <trkpt lat="44.24057" lon="6.21895">
        <ele>1906.91</ele>
        <time>2012-06-09T12:14:27Z</time>
      </trkpt>
      <trkpt lat="44.24139" lon="6.21839">
        <ele>1894.9</ele>
        <time>2012-06-09T12:18:04Z</time>
      </trkpt>
      <trkpt lat="44.24211" lon="6.21792">
        <ele>1880.96</ele>
        <time>2012-06-09T12:25:40Z</time>
      </trkpt>
      <trkpt lat="44.24276" lon="6.2174">
        <ele>1844.43</ele>
        <time>2012-06-09T12:29:17Z</time>
      </trkpt>
      <trkpt lat="44.24349" lon="6.2168">
        <ele>1806.94</ele>
        <time>2012-06-09T12:33:10Z</time>
      </trkpt>
      <trkpt lat="44.24413" lon="6.21592">
        <ele>1781.46</ele>
        <time>2012-06-09T12:35:09Z</time>
      </trkpt>
      <trkpt lat="44.24466" lon="6.21533">
        <ele>1759.35</ele>
        <time>2012-06-09T12:50:00Z</time>
      </trkpt>
      <trkpt lat="44.24534" lon="6.21606">
        <ele>1724.26</ele>
        <time>2012-06-09T12:52:21Z</time>
      </trkpt>
      <trkpt lat="44.24596" lon="6.21658">
        <ele>1693.98</ele>
        <time>2012-06-09T12:55:08Z</time>
      </trkpt>
      <trkpt lat="44.24665" lon="6.21707">
        <ele>1671.87</ele>
        <time>2012-06-09T12:57:00Z</time>
      </trkpt>
      <trkpt lat="44.24713" lon="6.21644">
        <ele>1665.62</ele>
        <time>2012-06-09T12:58:46Z</time>
      </trkpt>
      <trkpt lat="44.24803" lon="6.21635">
        <ele>1673.31</ele>
        <time>2012-06-09T13:00:46Z</time>
      </trkpt>
      <trkpt lat="44.24882" lon="6.21663">
        <ele>1686.29</ele>
        <time>2012-06-09T13:03:04Z</time>
      </trkpt>
      <trkpt lat="44.24938" lon="6.21602">
        <ele>1697.83</ele>
        <time>2012-06-09T13:05:28Z</time>
      </trkpt>
      <trkpt lat="44.24977" lon="6.21519">
        <ele>1720.42</ele>
        <time>2012-06-09T13:07:54Z</time>
      </trkpt>
      <trkpt lat="44.25047" lon="6.21484">
        <ele>1748.78</ele>
        <time>2012-06-09T13:10:38Z</time>
      </trkpt>
      <trkpt lat="44.25102" lon="6.21489">
        <ele>1764.16</ele>
        <time>2012-06-09T13:24:29Z</time>
      </trkpt>
      <trkpt lat="44.25136" lon="6.2159">
        <ele>1783.86</ele>
        <time>2012-06-09T13:27:06Z</time>
      </trkpt>
      <trkpt lat="44.25184" lon="6.21658">
        <ele>1816.55</ele>
        <time>2012-06-09T13:34:41Z</time>
      </trkpt>
      <trkpt lat="44.25246" lon="6.21707">
        <ele>1845.39</ele>
        <time>2012-06-09T13:37:28Z</time>
      </trkpt>
      <trkpt lat="44.25303" lon="6.21767">
        <ele>1882.88</ele>
        <time>2012-06-09T13:41:15Z</time>
      </trkpt>
      <trkpt lat="44.25345" lon="6.21816">
        <ele>1895.38</ele>
        <time>2012-06-09T14:08:49Z</time>
      </trkpt>
      <trkpt lat="44.254" lon="6.21915">
        <ele>1878.55</ele>
        <time>2012-06-09T14:10:19Z</time>
      </trkpt>
      <trkpt lat="44.25434" lon="6.22026">
        <ele>1879.03</ele>
        <time>2012-06-09T14:11:48Z</time>
      </trkpt>
      <trkpt lat="44.255" lon="6.22095">
        <ele>1872.79</ele>
        <time>2012-06-09T14:13:16Z</time>
      </trkpt>
      <trkpt lat="44.25538" lon="6.22189">
        <ele>1858.37</ele>
        <time>2012-06-09T14:14:55Z</time>
      </trkpt>
      <trkpt lat="44.25518" lon="6.22287">
        <ele>1842.5</ele>
        <time>2012-06-09T14:18:58Z</time>
      </trkpt>
      <trkpt lat="44.25554" lon="6.22394">
        <ele>1825.2</ele>
        <time>2012-06-09T14:20:47Z</time>
      </trkpt>
      <trkpt lat="44.25572" lon="6.22512">
        <ele>1806.45</ele>
        <time>2012-06-09T14:22:34Z</time>
      </trkpt>
      <trkpt lat="44.25606" lon="6.22629">
        <ele>1789.63</ele>
        <time>2012-06-09T14:24:37Z</time>
      </trkpt>
      <trkpt lat="44.25641" lon="6.22738">
        <ele>1769.44</ele>
        <time>2012-06-09T14:27:25Z</time>
      </trkpt>
      <trkpt lat="44.25673" lon="6.22848">
        <ele>1755.5</ele>
        <time>2012-06-09T14:29:24Z</time>
      </trkpt>
      <trkpt lat="44.25708" lon="6.22962">
        <ele>1743.01</ele>
        <time>2012-06-09T14:30:55Z</time>
      </trkpt>
      <trkpt lat="44.25756" lon="6.23069">
        <ele>1722.82</ele>
        <time>2012-06-09T14:33:03Z</time>
      </trkpt>
      <trkpt lat="44.25808" lon="6.23155">
        <ele>1714.17</ele>
        <time>2012-06-09T14:36:23Z</time>
      </trkpt>
      <trkpt lat="44.25866" lon="6.23243">
        <ele>1706.48</ele>
        <time>2012-06-09T14:38:25Z</time>
      </trkpt>
      <trkpt lat="44.25919" lon="6.23339">
        <ele>1690.14</ele>
        <time>2012-06-09T14:40:22Z</time>
      </trkpt>
      <trkpt lat="44.25919" lon="6.23442">
        <ele>1703.11</ele>
        <time>2012-06-09T14:42:27Z</time>
      </trkpt>
      <trkpt lat="44.25958" lon="6.23532">
        <ele>1719.94</ele>
        <time>2012-06-09T14:44:27Z</time>
      </trkpt>
      <trkpt lat="44.26031" lon="6.23595">
        <ele>1729.07</ele>
        <time>2012-06-09T14:46:46Z</time>
      </trkpt>
      <trkpt lat="44.26096" lon="6.23661">
        <ele>1706</ele>
        <time>2012-06-09T14:55:36Z</time>
      </trkpt>
      <trkpt lat="44.26171" lon="6.23731">
        <ele>1693.5</ele>
        <time>2012-06-09T14:57:11Z</time>
      </trkpt>
      <trkpt lat="44.2626" lon="6.2375">
        <ele>1688.69</ele>
        <time>2012-06-09T14:58:46Z</time>
      </trkpt>
      <trkpt lat="44.26342" lon="6.23796">
        <ele>1684.37</ele>
        <time>2012-06-09T15:00:11Z</time>
      </trkpt>
      <trkpt lat="44.26396" lon="6.23874">
        <ele>1672.83</ele>
        <time>2012-06-09T15:03:43Z</time>
      </trkpt>
      <trkpt lat="44.2644" lon="6.23957">
        <ele>1654.09</ele>
        <time>2012-06-09T15:05:44Z</time>
      </trkpt>
      <trkpt lat="44.26462" lon="6.24103">
        <ele>1636.3</ele>
        <time>2012-06-09T15:07:44Z</time>
      </trkpt>
      <trkpt lat="44.26482" lon="6.24248">
        <ele>1620.44</ele>
        <time>2012-06-09T15:09:29Z</time>
      </trkpt>
      <trkpt lat="44.26496" lon="6.24376">
        <ele>1605.06</ele>
        <time>2012-06-09T15:11:50Z</time>
      </trkpt>
      <trkpt lat="44.26517" lon="6.24493">
        <ele>1590.16</ele>
        <time>2012-06-09T15:13:38Z</time>
      </trkpt>
      <trkpt lat="44.26526" lon="6.24622">
        <ele>1570.93</ele>
        <time>2012-06-09T15:15:31Z</time>
      </trkpt>
      <trkpt lat="44.26549" lon="6.2473">
        <ele>1540.17</ele>
        <time>2012-06-09T15:19:00Z</time>
      </trkpt>
      <trkpt lat="44.26554" lon="6.24817">
        <ele>1517.1</ele>
        <time>2012-06-09T15:27:09Z</time>
      </trkpt>
      <trkpt lat="44.26564" lon="6.24954">
        <ele>1490.66</ele>
        <time>2012-06-09T15:29:39Z</time>
      </trkpt>
      <trkpt lat="44.26561" lon="6.25058">
        <ele>1453.65</ele>
        <time>2012-06-09T15:35:05Z</time>
      </trkpt>
      <trkpt lat="44.26549" lon="6.25148">
        <ele>1418.08</ele>
        <time>2012-06-09T15:38:38Z</time>
      </trkpt>
      <trkpt lat="44.2646" lon="6.2509">
        <ele>1384.92</ele>
        <time>2012-06-09T15:44:02Z</time>
      </trkpt>
      <trkpt lat="44.26399" lon="6.25015">
        <ele>1356.56</ele>
        <time>2012-06-09T15:47:50Z</time>
      </trkpt>
      <trkpt lat="44.26346" lon="6.25064">
        <ele>1334.93</ele>
        <time>2012-06-09T15:53:34Z</time>
      </trkpt>
      <trkpt lat="44.26243" lon="6.25042">
        <ele>1323.39</ele>
        <time>2012-06-09T15:55:20Z</time>
      </trkpt>
      <trkpt lat="44.26237" lon="6.2518">
        <ele>1308.97</ele>
        <time>2012-06-09T15:57:02Z</time>
      </trkpt>
      <trkpt lat="44.26147" lon="6.25203">
        <ele>1296.48</ele>
        <time>2012-06-09T15:58:42Z</time>
      </trkpt>
      <trkpt lat="44.26042" lon="6.2519">
        <ele>1284.94</ele>
        <time>2012-06-09T16:00:28Z</time>
      </trkpt>
      <trkpt lat="44.25956" lon="6.25101">
        <ele>1272.92</ele>
        <time>2012-06-09T16:02:16Z</time>
      </trkpt>
      <trkpt lat="44.25851" lon="6.25107">
        <ele>1265.71</ele>
        <time>2012-06-09T16:03:46Z</time>
      </trkpt>
      <trkpt lat="44.25789" lon="6.25132">
        <ele>1253.22</ele>
        <time>2012-06-09T16:05:28Z</time>
      </trkpt>
      <trkpt lat="44.25797" lon="6.25216">
        <ele>1240.24</ele>
        <time>2012-06-09T16:06:57Z</time>
      </trkpt>
      <trkpt lat="44.2577" lon="6.25199">
        <ele>1226.78</ele>
        <time>2012-06-09T16:09:49Z</time>
      </trkpt>
      <trkpt lat="44.25765" lon="6.25204">
        <ele>1226.3</ele>
        <time>2012-06-09T16:15:17Z</time>
      </trkpt>
    </trkseg>
  </trk>
</gpx>